Data for 07/10/2008

Time Sea-Level Adjusted Pressure Absolute Pressure Temperature Relative Humidity Dew Point   
(mb) (inHg) (mb) (inHg) (C) (F) (%) (C) (F)
00:05 1017 30.03 846 24.98 17 62.6 36 1.9 35.4
00:10 1017 30.03 846 24.98 17 62.5 35 1.5 34.6
00:15 1017 30.03 846 24.98 17.2 62.9 36 2.3 36.1
00:20 1017 30.03 846 24.98 17.5 63.4 32 0.7 33.2
00:25 1017 30.03 846 24.98 17.8 64 34 1.9 35.5
00:30 1017 30.03 846 24.98 17.9 64.2 32 0.9 33.7
00:35 1017 30.03 846 24.98 17.1 62.7 38 2.8 37
00:40 1017 30.03 846 24.98 16.4 61.6 37 1.9 35.3
00:45 1017 30.03 846 24.98 16.5 61.8 37 1.8 35.2
00:50 1017 30.03 846 24.98 16.5 61.7 34 0.8 33.5
00:55 1017 30.03 846 24.98 17 62.6 37 2.3 36.2
01:00 1017 30.03 846 24.98 16.6 61.8 39 2.5 36.5
01:05 1017 30.03 846 24.98 16.2 61.1 38 1.9 35.4
01:10 1017 30.03 846 24.98 16 60.7 39 2.2 35.9
01:15 1017 30.03 846 24.98 15.9 60.7 38 1.6 34.9
01:20 1017 30.03 846 24.98 16.4 61.5 36 1.5 34.8
01:25 1017 30.03 846 24.98 16.7 62 34 0.9 33.7
01:30 1017 30.03 846 24.98 17.1 62.8 32 0.5 32.9
01:35 1017 30.03 846 24.98 17.4 63.3 33 1.2 34.2
01:40 1017 30.03 846 24.98 17 62.6 36 1.8 35.2
01:45 1017 30.03 846 24.98 16.8 62.3 36 1.7 35.1
01:50 1017 30.03 846 24.98 16.5 61.8 35 1 33.9
01:55 1017 30.03 846 24.98 16.7 62.1 36 1.8 35.2
02:00 1017 30.03 846 24.98 16.1 60.9 37 1.5 34.8
02:05 1017 30.03 846 24.98 16.5 61.6 36 1.3 34.4
02:10 1017 30.03 846 24.98 16.7 62 34 0.8 33.5
02:15 1017 30.03 846 24.98 16.9 62.4 34 1 33.8
02:20 1017 30.03 846 24.98 16.5 61.7 38 2.1 35.8
02:25 1017 30.03 846 24.98 15.9 60.5 39 2 35.5
02:30 1017 30.03 846 24.98 15.6 60.1 40 2 35.6
02:35 1017 30.03 846 24.98 15.5 59.9 39 1.7 35
02:40 1017 30.03 846 24.98 15.8 60.5 37 1.2 34.2
02:45 1016 30 846 24.98 16.3 61.3 36 1.2 34.2
02:50 1016 30 846 24.98 16.7 62 34 1 33.8
02:55 1016 30 846 24.98 16.7 62.1 35 1.3 34.3
03:00 1016 30 845 24.95 16.3 61.4 37 1.8 35.3
03:05 1016 30 845 24.95 16 60.9 38 1.9 35.4
03:10 1016 30 845 24.95 15.9 60.5 39 2 35.6
03:15 1016 30 845 24.95 15.9 60.5 39 2 35.6
03:20 1016 30 845 24.95 15.2 59.3 42 2.6 36.7
03:25 1016 30 845 24.95 14.8 58.7 44 2.7 36.8
03:30 1016 30 845 24.95 14.7 58.5 44 2.7 36.9
03:35 1016 30 845 24.95 14.7 58.4 44 2.5 36.5
03:40 1016 30 845 24.95 14.5 58.1 45 2.8 37
03:45 1016 30 845 24.95 14.4 58 44 2.6 36.6
03:50 1016 30 845 24.95 14.5 58.2 44 2.6 36.6
03:55 1016 30 845 24.95 14.5 58.2 45 2.7 36.8
04:00 1016 30 845 24.95 14.8 58.6 42 2.1 35.8
04:05 1016 30 845 24.95 14.9 58.8 43 2.5 36.5
04:10 1016 30 845 24.95 14.7 58.5 44 2.6 36.7
04:15 1016 30 845 24.95 14.6 58.2 44 2.5 36.5
04:20 1016 30 845 24.95 14.6 58.3 44 2.6 36.7
04:25 1016 30 845 24.95 14.5 58 45 2.7 36.9
04:30 1016 30 845 24.95 14.4 57.9 45 2.7 36.9
04:35 1016 30 845 24.95 14.3 57.7 45 2.5 36.5
04:40 1016 30 845 24.95 14.5 58.1 44 2.6 36.7
04:45 1016 30 845 24.95 14.4 57.9 45 2.8 37.1
04:50 1016 30 845 24.95 14.4 57.8 44 2.3 36.2
04:55 1016 30 845 24.95 14.6 58.3 44 2.6 36.7
05:00 1016 30 845 24.95 14.7 58.5 44 2.5 36.6
05:05 1016 30 845 24.95 14.8 58.7 42 2.3 36.1
05:10 1016 30 845 24.95 15 58.9 42 2.4 36.2
05:15 1016 30 845 24.95 15 59 42 2.2 36
05:20 1016 30 845 24.95 15.3 59.5 40 2 35.6
05:25 1016 30 845 24.95 15.4 59.8 41 2.3 36.1
05:30 1016 30 845 24.95 15.1 59.2 42 2.3 36.2
05:35 1016 30 845 24.95 15 59 42 2.4 36.3
05:40 1016 30 845 24.95 14.7 58.5 44 2.8 37
05:45 1016 30 845 24.95 14.2 57.5 47 3.2 37.8
05:50 1016 30 845 24.95 13.4 56.1 52 3.8 38.8
05:55 1016 30 845 24.95 13.1 55.6 51 3.2 37.7
06:00 1016 30 845 24.95 13 55.4 53 3.6 38.5
06:05 1016 30 845 24.95 13 55.4 51 3.2 37.8
06:10 1016 30 845 24.95 13.2 55.7 51 3.3 37.9
06:15 1016 30 845 24.95 13.2 55.7 49 2.9 37.2
06:20 1016 30 845 24.95 13.7 56.6 46 2.4 36.3
06:25 1016 30 845 24.95 14.1 57.4 48 3.3 37.9
06:30 1016 30 845 24.95 14.3 57.7 46 3 37.3
06:35 1016 30 845 24.95 14.2 57.5 46 2.7 36.9
06:40 1016 30 845 24.95 14.6 58.2 44 2.6 36.7
06:45 1016 30 845 24.95 14.6 58.4 46 3.1 37.6
06:50 1016 30 845 24.95 14.6 58.2 46 3.3 37.9
06:55 1016 30 846 24.98 14.5 58.2 47 3.4 38.1
07:00 1016 30 846 24.98 14.7 58.4 44 2.8 37
07:05 1016 30 846 24.98 15.3 59.5 41 2.1 35.7
07:10 1017 30.03 846 24.98 15.7 60.2 42 2.9 37.2
07:15 1017 30.03 846 24.98 15.9 60.7 44 3.8 38.9
07:20 1017 30.03 846 24.98 15.9 60.5 46 4.2 39.6
07:25 1017 30.03 846 24.98 15.7 60.3 47 4.4 39.9
07:30 1017 30.03 846 24.98 15.6 60.1 48 4.6 40.3
07:35 1017 30.03 846 24.98 16 60.8 47 4.9 40.8
07:40 1017 30.03 846 24.98 16.7 62.1 46 5.1 41.1
07:45 1017 30.03 846 24.98 17.2 62.9 45 5.1 41.1
07:50 1017 30.03 846 24.98 17.5 63.4 44 5.1 41.2
07:55 1017 30.03 846 24.98 17.3 63.2 44 5.1 41.1
08:00 1016 30 846 24.98 17.5 63.5 45 5.4 41.7
08:05 1016 30 846 24.98 18 64.4 45 6.1 43
08:10 1016 30 846 24.98 18.6 65.4 44 6.3 43.3
08:15 1016 30 846 24.98 19.1 66.4 43 6.3 43.3
08:20 1017 30.03 846 24.98 19.6 67.3 41 6 42.8
08:25 1017 30.03 846 24.98 20.2 68.4 39 6.1 43.1
08:30 1017 30.03 846 24.98 20.3 68.6 39 6.1 43
08:35 1017 30.03 846 24.98 20.9 69.6 38 6.1 43.1
08:40 1017 30.03 846 24.98 21.6 70.9 35 5.9 42.6
08:45 1017 30.03 846 24.98 22.1 71.8 35 6 42.7
08:50 1017 30.03 846 24.98 21.9 71.4 35 6 42.7
08:55 1017 30.03 846 24.98 21.9 71.4 33 5.3 41.5
09:00 1017 30.03 846 24.98 22.2 71.9 34 5.9 42.6
09:05 1017 30.03 846 24.98 22 71.5 35 6.1 42.9
09:10 1017 30.03 846 24.98 22 71.7 34 5.6 42.1
09:15 1017 30.03 846 24.98 22.4 72.3 37 7 44.6
09:20 1016 30 846 24.98 22.7 72.9 31 4.9 40.8
09:25 1016 30 846 24.98 23.2 73.8 29 4.5 40.2
09:30 1016 30 846 24.98 23.3 74 31 5.3 41.5
09:35 1016 30 846 24.98 22.8 73 29 4.2 39.5
09:40 1016 30 846 24.98 23.9 75 28 4.4 39.9
09:45 1016 30 846 24.98 24.7 76.4 27 4.7 40.4
09:50 1016 30 846 24.98 24.9 76.8 26 4.5 40.1
09:55 1016 30 846 24.98 24.8 76.7 27 5 40.9
10:00 1016 30 845 24.95 25 76.9 26 4.4 39.9
10:05 1016 30 845 24.95 24.9 76.8 27 5 41
10:10 1016 30 845 24.95 25.1 77.2 25 3.7 38.7
10:15 1016 30 845 24.95 25.8 78.4 25 4.7 40.4
10:20 1016 30 845 24.95 25.9 78.6 21 2.3 36.1
10:25 1016 30 845 24.95 24.7 76.4 22 1.9 35.4
10:30 1016 30 845 24.95 24.2 75.6 24 2.7 36.9
10:35 1016 30 845 24.95 24.1 75.3 27 3.9 39
10:40 1016 30 845 24.95 23.9 74.9 26 3.6 38.4
10:45 1016 30 845 24.95 24.3 75.8 24 2.4 36.3
10:50 1016 30 845 24.95 25.7 78.2 23 3.2 37.7
10:55 1016 30 845 24.95 26.4 79.4 23 4 39.3
11:00 1016 30 845 24.95 26.7 80.1 25 5.4 41.7
11:05 1016 30 845 24.95 26.7 80 25 5.1 41.2
11:10 1016 30 845 24.95 26.5 79.8 26 5.5 42
11:15 1015 29.97 845 24.95 26.2 79.1 25 4.9 40.8
11:20 1015 29.97 845 24.95 26.6 79.9 25 5.1 41.2
11:25 1015 29.97 845 24.95 27.3 81.1 23 4.6 40.4
11:30 1015 29.97 844 24.92 27 80.6 24 4.8 40.7
11:35 1015 29.97 844 24.92 26.9 80.5 23 4.6 40.2
11:40 1015 29.97 844 24.92 27.1 80.8 23 4.7 40.4
11:45 1015 29.97 844 24.92 27.4 81.3 23 4.9 40.8
11:50 1015 29.97 844 24.92 27.5 81.5 22 4.5 40
11:55 1015 29.97 844 24.92 28 82.4 20 3 37.4
12:00 1015 29.97 844 24.92 27.5 81.5 19 2.1 35.8
12:05 1015 29.97 844 24.92 28.1 82.5 16 -0.2 31.6
12:10 1015 29.97 844 24.92 28.3 82.9 18 1.8 35.3
12:15 1014 29.94 844 24.92 27.7 81.9 18 1.6 34.9
12:20 1014 29.94 843 24.89 28.3 82.9 19 2.9 37.2
12:25 1014 29.94 843 24.89 28.3 83 20 3.2 37.8
12:30 1014 29.94 843 24.89 28.7 83.6 13 -1.7 28.9
12:35 1014 29.94 843 24.89 28.9 84 14 -1.4 29.5
12:40 1014 29.94 843 24.89 28.7 83.6 13 -2.1 28.2
12:45 1014 29.94 843 24.89 28.6 83.5 14 -1.3 29.7
12:50 1014 29.94 843 24.89 28.8 83.9 13 -1.7 28.9
12:55 1014 29.94 843 24.89 28.9 84 13 -2 28.4
13:00 1014 29.94 843 24.89 29 84.1 12 -2.7 27.1
13:05 1014 29.94 843 24.89 28.6 83.5 12 -3.4 25.9
13:10 1014 29.94 843 24.89 28.8 83.8 12 -3 26.6
13:15 1014 29.94 843 24.89 28.9 84 13 -2.4 27.6
13:20 1014 29.94 843 24.89 28.9 84 13 -2.3 27.8
13:25 1013 29.91 843 24.89 29.2 84.6 13 -2.2 28.1
13:30 1013 29.91 842 24.86 29.5 85.1 13 -1.4 29.5
13:35 1013 29.91 842 24.86 29.6 85.2 12 -3.1 26.5
13:40 1013 29.91 842 24.86 29.4 84.9 12 -2.6 27.3
13:45 1013 29.91 842 24.86 29.3 84.8 13 -2 28.5
13:50 1013 29.91 842 24.86 29.6 85.3 12 -1.9 28.5
13:55 1013 29.91 842 24.86 30.2 86.3 13 -0.8 30.5
14:00 1013 29.91 842 24.86 30.6 87 13 -1.1 30.1
14:05 1013 29.91 842 24.86 30.9 87.7 12 -1.9 28.5
14:10 1013 29.91 842 24.86 30.6 87.1 12 -1.5 29.3
14:15 1012 29.88 842 24.86 30.4 86.8 12 -1.6 29
14:20 1012 29.88 842 24.86 30.6 87.1 12 -1.4 29.5
14:25 1012 29.88 841 24.83 31 87.8 12 -1.1 30
14:30 1012 29.88 841 24.83 30.7 87.2 12 -1.5 29.3
14:35 1012 29.88 841 24.83 30.7 87.2 12 -2 28.5
14:40 1012 29.88 841 24.83 31.1 88 12 -1.1 30.1
14:45 1012 29.88 841 24.83 31.3 88.4 12 -1.3 29.6
14:50 1012 29.88 841 24.83 31.2 88.1 11 -1.9 28.7
14:55 1012 29.88 841 24.83 31 87.8 11 -2.5 27.5
15:00 1012 29.88 841 24.83 30.7 87.3 11 -2.6 27.3
15:05 1011 29.85 841 24.83 31.1 88 12 -1.2 29.8
15:10 1011 29.85 841 24.83 31.6 88.9 11 -1.8 28.7
15:15 1011 29.85 840 24.81 31.6 89 12 -1 30.1
15:20 1011 29.85 840 24.81 31.9 89.4 11 -1.5 29.3
15:25 1011 29.85 840 24.81 32 89.6 11 -1.7 28.9
15:30 1011 29.85 840 24.81 31.7 89 12 -1.1 30
15:35 1011 29.85 840 24.81 32.2 89.9 12 -0.8 30.5
15:40 1011 29.85 840 24.81 32.2 90 11 -1.6 29.1
15:45 1011 29.85 840 24.81 32 89.6 11 -1.2 29.9
15:50 1011 29.85 840 24.81 32.2 90 11 -1.1 30.1
15:55 1011 29.85 840 24.81 32.3 90.2 11 -1.4 29.5
16:00 1010 29.83 840 24.81 32.3 90.2 11 -1.2 29.9
16:05 1010 29.83 840 24.81 32 89.6 11 -1.4 29.4
16:10 1010 29.83 840 24.81 31.9 89.4 12 -0.9 30.3
16:15 1010 29.83 840 24.81 31.5 88.7 12 -1.5 29.4
16:20 1010 29.83 840 24.81 31.4 88.6 12 -0.5 31.2
16:25 1010 29.83 840 24.81 31.8 89.3 12 -0.2 31.6
16:30 1010 29.83 840 24.81 30.9 87.6 12 -1.1 30
16:35 1010 29.83 839 24.78 30.7 87.2 13 -0.6 31
16:40 1010 29.83 839 24.78 30.6 87.1 13 -0.1 31.9
16:45 1010 29.83 839 24.78 30.4 86.8 13 -0.3 31.5
16:50 1010 29.83 839 24.78 30.4 86.7 15 0.8 33.4
16:55 1010 29.83 839 24.78 30.1 86.3 14 0.1 32.2
17:00 1010 29.83 839 24.78 30.7 87.2 14 0.4 32.7
17:05 1010 29.83 839 24.78 31 87.8 14 0.8 33.4
17:10 1010 29.83 839 24.78 31.3 88.4 12 -1.2 29.8
17:15 1010 29.83 839 24.78 31 87.9 12 -0.8 30.5
17:20 1010 29.83 839 24.78 31 87.7 13 -0.5 31.2
17:25 1010 29.83 839 24.78 31.7 89.1 13 -0.1 31.8
17:30 1010 29.83 839 24.78 32 89.6 12 -0.9 30.4
17:35 1010 29.83 839 24.78 31.5 88.7 12 -0.4 31.2
17:40 1009 29.8 839 24.78 31.4 88.6 13 0.4 32.7
17:45 1009 29.8 839 24.78 31 87.9 14 0.4 32.8
17:50 1009 29.8 839 24.78 31 87.7 14 1 33.9
17:55 1009 29.8 838 24.75 31 87.7 13 -0.2 31.6
18:00 1009 29.8 838 24.75 31 87.7 14 0.2 32.4
18:05 1009 29.8 838 24.75 30.9 87.7 13 -0.2 31.7
18:10 1009 29.8 838 24.75 30.9 87.6 14 0.3 32.5
18:15 1009 29.8 838 24.75 31.5 88.7 13 0.3 32.5
18:20 1009 29.8 838 24.75 32.3 90.1 13 1.3 34.3
18:25 1009 29.8 838 24.75 31.9 89.4 13 0.1 32.2
18:30 1009 29.8 838 24.75 31.9 89.5 11 -1.6 29.1
18:35 1009 29.8 838 24.75 32.5 90.5 12 -0.7 30.7
18:40 1009 29.8 838 24.75 32.8 91 11 -1.5 29.2
18:45 1009 29.8 838 24.75 32.8 91 11 -0.6 31
18:50 1009 29.8 838 24.75 32.1 89.8 11 -1.8 28.8
18:55 1009 29.8 838 24.75 31.8 89.2 11 -1.9 28.7
19:00 1009 29.8 838 24.75 31.9 89.5 11 -1.9 28.5
19:05 1009 29.8 838 24.75 31.9 89.5 11 -1.5 29.2
19:10 1009 29.8 838 24.75 31.8 89.2 11 -2 28.4
19:15 1009 29.8 838 24.75 31.6 88.9 11 -2.6 27.3
19:20 1009 29.8 838 24.75 31.6 88.8 11 -1.7 28.9
19:25 1009 29.8 838 24.75 31.6 88.9 12 -0.8 30.6
19:30 1009 29.8 838 24.75 31.1 87.9 12 -1.9 28.6
19:35 1009 29.8 838 24.75 30.6 87.2 11 -3.2 26.2
19:40 1009 29.8 838 24.75 30.5 86.9 11 -3.5 25.7
19:45 1009 29.8 838 24.75 30.4 86.7 11 -3.2 26.2
19:50 1009 29.8 838 24.75 30.2 86.4 12 -2.5 27.5
19:55 1009 29.8 838 24.75 29.8 85.7 12 -1.8 28.7
20:00 1009 29.8 838 24.75 29.5 85 12 -2.1 28.3
20:05 1009 29.8 838 24.75 29.2 84.5 13 -1.8 28.8
20:10 1009 29.8 838 24.75 28.9 84.1 15 0.2 32.4
20:15 1009 29.8 838 24.75 27.8 82 18 1.6 34.9
20:20 1009 29.8 839 24.78 27 80.6 19 1.7 35
20:25 1009 29.8 839 24.78 26.5 79.8 19 1.5 34.7
20:30 1010 29.83 839 24.78 26.2 79.1 20 1.7 35.1
20:35 1010 29.83 839 24.78 25.8 78.5 21 1.8 35.3
20:40 1010 29.83 839 24.78 25.6 78 21 2.1 35.8
20:45 1010 29.83 839 24.78 25.4 77.7 21 2 35.7
20:50 1010 29.83 839 24.78 25.2 77.4 22 2 35.6
20:55 1010 29.83 839 24.78 25.1 77.1 21 1.3 34.4
21:00 1010 29.83 839 24.78 24.9 76.8 21 1.6 34.9
21:05 1010 29.83 839 24.78 24.8 76.6 22 1.7 35
21:10 1010 29.83 840 24.81 24.6 76.4 22 1.6 34.8
21:15 1010 29.83 840 24.81 24.1 75.4 24 2.7 36.8
21:20 1011 29.85 840 24.81 23 73.3 25 2.3 36.2
21:25 1011 29.85 840 24.81 22.6 72.8 25 1.9 35.5
21:30 1011 29.85 840 24.81 22.6 72.7 25 1.7 35.1
21:35 1011 29.85 840 24.81 22.7 72.8 26 2.4 36.2
21:40 1011 29.85 840 24.81 22.4 72.4 26 2.1 35.8
21:45 1011 29.85 840 24.81 22.2 71.9 25 1.4 34.5
21:50 1011 29.85 840 24.81 22.1 71.9 26 1.8 35.2
21:55 1011 29.85 840 24.81 22.3 72.2 25 1.5 34.8
22:00 1011 29.85 840 24.81 22.5 72.5 24 1.2 34.2
22:05 1011 29.85 840 24.81 22.4 72.4 23 0.6 33.1
22:10 1011 29.85 841 24.83 22.5 72.5 23 0.7 33.3
22:15 1011 29.85 841 24.83 22.5 72.5 24 1 33.7
22:20 1012 29.88 841 24.83 21.8 71.2 29 2.9 37.3
22:25 1012 29.88 841 24.83 20.8 69.4 30 2.7 36.8
22:30 1012 29.88 841 24.83 20.3 68.5 30 2.2 36
22:35 1012 29.88 841 24.83 20 68 31 2.5 36.6
22:40 1012 29.88 841 24.83 19.8 67.6 31 2.2 36
22:45 1012 29.88 841 24.83 19.7 67.5 31 2.1 35.9
22:50 1012 29.88 841 24.83 19.7 67.4 31 2.2 36
22:55 1012 29.88 841 24.83 19.5 67.1 29 1.3 34.4
23:00 1012 29.88 841 24.83 19.7 67.4 29 1.3 34.3
23:05 1012 29.88 841 24.83 19.8 67.7 30 2.1 35.8
23:10 1012 29.88 841 24.83 19.7 67.5 30 1.8 35.2
23:15 1012 29.88 841 24.83 19.5 67.1 30 1.9 35.4
23:20 1012 29.88 841 24.83 19.3 66.8 32 2.6 36.7
23:25 1012 29.88 841 24.83 19 66.1 30 1.3 34.4
23:30 1012 29.88 842 24.86 19.4 66.9 31 1.8 35.3
23:35 1012 29.88 842 24.86 19.3 66.8 30 1.6 34.9
23:40 1012 29.88 842 24.86 19.5 67 32 2.4 36.2
23:45 1013 29.91 842 24.86 19.3 66.7 31 2 35.7
23:50 1013 29.91 842 24.86 19.2 66.6 31 1.7 35
23:55 1013 29.91 842 24.86 19.2 66.6 32 2.5 36.4
24:00 1013 29.91 842 24.86 19.1 66.5 31 1.8 35.2